Ambler, Pennsylvania
Current Conditions -  °F | °C
As of 5:35 PM on Wednesday 22 Oct 2014 (Local Time) from KLOM Reporting Station
Broken Clouds Broken Clouds  
Wind Chill: 13°   Ceiling: 2500
Heat Index: 13°   Visibility: 10mi
Dew Point: 11°   Wind: 5mph
Humidity: 88%   Direction: 360°N
Pressure: 29.85"   Gusts: NA
Location:  40.16°N, 75.22°W
Report Text: KLOM 222135Z AUTO 36004KT 10SM SCT019 BKN025 13/11 A2985 RMK AO1 P0001
Loading
Personal Weather Stations






























Interactive Weather Map
Tropical Storm Tracking
New forecast layout! Learn more

10-Day Weather Forecast

Advertisements
Track Severe Weather on mobile